ADDS METAR Data INFO
IDs: Format: Raw Decoded Include TAF

Data at: 0154 UTC 25 Feb 2018

KCPU 250130Z AUTO 00000KT 10SM BKN049 OVC055 09/M02 A3027 RMK AO2 T00851023